CheckWX is a tool to help pilots better visualize weather data.  It is not intended as a substitute for an official pre-flight weather briefing.

14:02:40 UTC

KCVH METAR
Hollister Municipal Airport
Hollister, California, USA
Current

8 mins ago

KCVH 251355Z AUTO 21005KT 8SM CLR 11/10 A2998 RMK A01
Observed
Apr-25 @ 13:55 UTC
Wind
  • 210° at 5 KTS
Visibility
8 SM
Flight Rules
VFR
Cloud Levels
  • Clear skies
Temperature
11°C / 52°F
Dewpoint
10°C / 50°F
Humidity
94%
Altimeter
29.98" Hg
Pressure
1015.22 hPa
Previous

23 mins ago

KCVH 251340Z AUTO 20004KT 7SM CLR 11/09 A2997 RMK A01
Observed
Apr-25 @ 13:40 UTC
Wind
  • 200° at 4 KTS
Visibility
7 SM
Flight Rules
VFR
Cloud Levels
  • Clear skies
Temperature
11°C / 52°F
Dewpoint
C / 48°F
Humidity
88%
Altimeter
29.97" Hg
Pressure
1014.92 hPa
Previous

28 mins ago

KCVH 251335Z AUTO 00000KT 8SM CLR 11/09 A2997 RMK A01
Observed
Apr-25 @ 13:35 UTC
Visibility
8 SM
Flight Rules
VFR
Cloud Levels
  • Clear skies
Temperature
11°C / 52°F
Dewpoint
C / 48°F
Humidity
88%
Altimeter
29.97" Hg
Pressure
1014.92 hPa